Time;durP1;ratioP1;P1;durP2;ratioP2;P2;SDS_P1;SDS_P2;PMS_P1;PMS_P2;Temp;Humidity;BMP_temperature;BMP_pressure;BME280_temperature;BME280_humidity;BME280_pressure;Samples;Min_cycle;Max_cycle;Signal;HPM_P1;HPM_P2
2022/07/14 00:01:45;;;;;;;2.22;2.03;;;;;;;19.30;56.10;98852.75;4137359;28;20046;-70
2022/07/14 00:03:46;;;;;;;7.65;2.17;;;;;;;19.26;56.48;98847.19;4136426;28;20042;-70
2022/07/14 00:05:46;;;;;;;5.55;2.17;;;;;;;19.16;57.01;98844.59;4136618;28;20037;-70
2022/07/14 00:07:47;;;;;;;5.97;2.53;;;;;;;19.12;56.99;98846.66;4137033;28;20478;-73
2022/07/14 00:09:47;;;;;;;4.00;1.90;;;;;;;19.04;57.52;98840.38;4136343;28;20833;-72
2022/07/14 00:11:47;;;;;;;2.92;1.70;;;;;;;18.95;57.76;98831.69;4137484;28;20135;-73
2022/07/14 00:13:48;;;;;;;2.13;1.70;;;;;;;18.88;58.16;98835.44;4138399;28;20137;-72
2022/07/14 00:15:48;;;;;;;2.78;1.85;;;;;;;18.80;58.76;98839.56;4136752;28;20050;-72
2022/07/14 00:17:50;;;;;;;3.75;1.85;;;;;;;18.70;59.14;98837.72;4136410;28;20038;-72
2022/07/14 00:19:50;;;;;;;3.00;2.15;;;;;;;18.66;59.73;98840.56;4137727;28;20046;-72
2022/07/14 00:21:50;;;;;;;3.63;2.20;;;;;;;18.64;60.04;98842.19;4136770;28;20381;-72
2022/07/14 00:23:51;;;;;;;5.60;2.55;;;;;;;18.51;60.59;98839.97;4136060;28;20053;-72
2022/07/14 00:25:51;;;;;;;3.20;2.38;;;;;;;18.41;61.24;98849.31;4136865;28;20037;-72
2022/07/14 00:27:52;;;;;;;4.60;2.13;;;;;;;18.39;60.78;98845.38;4138131;28;20088;-72
2022/07/14 00:29:53;;;;;;;3.25;2.22;;;;;;;18.35;61.32;98842.59;4137787;28;20073;-72
2022/07/14 00:31:53;;;;;;;5.43;2.33;;;;;;;18.25;61.95;98837.94;4132671;28;20060;-72
2022/07/14 00:33:53;;;;;;;3.70;2.13;;;;;;;18.14;63.52;98835.28;4137611;28;20084;-72
2022/07/14 00:35:54;;;;;;;4.18;2.03;;;;;;;18.06;63.81;98845.00;4136774;28;20045;-72
2022/07/14 00:37:54;;;;;;;2.20;1.90;;;;;;;17.99;63.96;98845.09;4135955;28;20100;-72
2022/07/14 00:39:55;;;;;;;3.72;1.88;;;;;;;17.91;64.18;98844.38;4137383;28;20368;-72
2022/07/14 00:41:56;;;;;;;3.05;1.65;;;;;;;17.87;64.69;98845.63;4137912;28;20053;-72
2022/07/14 00:43:56;;;;;;;2.47;1.75;;;;;;;17.81;64.91;98844.50;4136295;28;20521;-72
2022/07/14 00:45:56;;;;;;;2.28;1.63;;;;;;;17.76;65.75;98848.56;4135589;28;20474;-72
2022/07/14 00:47:57;;;;;;;2.78;1.90;;;;;;;17.65;66.19;98845.06;4137581;28;20375;-72
2022/07/14 00:49:57;;;;;;;4.68;2.15;;;;;;;17.53;66.47;98845.56;4135936;28;20364;-72
2022/07/14 00:51:58;;;;;;;3.45;2.20;;;;;;;17.49;66.49;98839.25;4137573;28;20046;-72
2022/07/14 00:53:59;;;;;;;4.00;2.20;;;;;;;17.45;66.38;98841.25;4137107;28;20420;-72
2022/07/14 00:55:59;;;;;;;3.60;2.15;;;;;;;17.44;66.42;98843.25;4135810;28;20060;-72
2022/07/14 00:58:00;;;;;;;2.58;2.20;;;;;;;17.46;66.51;98840.88;4136551;28;20058;-72
2022/07/14 01:00:00;;;;;;;2.65;2.08;;;;;;;17.40;66.47;98851.72;4134967;28;20052;-72
2022/07/14 01:02:00;;;;;;;5.13;2.40;;;;;;;17.42;66.66;98846.47;4137717;28;20049;-72
2022/07/14 01:04:01;;;;;;;4.28;2.35;;;;;;;17.39;66.71;98838.94;4136177;28;20072;-72
2022/07/14 01:06:01;;;;;;;3.75;2.25;;;;;;;17.39;66.40;98838.94;4136293;28;20282;-72
2022/07/14 01:08:02;;;;;;;3.45;2.30;;;;;;;17.32;66.71;98833.41;4136932;28;20034;-72
2022/07/14 01:10:04;;;;;;;5.35;2.42;;;;;;;17.31;66.73;98833.84;4134961;28;20033;-72
2022/07/14 01:12:05;;;;;;;2.65;2.17;;;;;;;17.29;66.19;98825.81;4135440;28;20041;-72
2022/07/14 01:14:05;;;;;;;4.05;2.22;;;;;;;17.30;66.01;98829.44;4135962;28;20041;-72
2022/07/14 01:16:06;;;;;;;3.10;2.38;;;;;;;17.26;66.62;98832.25;4137877;28;20032;-72
2022/07/14 01:18:06;;;;;;;3.50;1.90;;;;;;;17.24;66.94;98840.28;4137263;28;20037;-72
2022/07/14 01:20:08;;;;;;;3.92;2.15;;;;;;;17.19;67.46;98840.72;4135531;28;20116;-72
2022/07/14 01:22:09;;;;;;;5.30;2.10;;;;;;;17.17;67.67;98847.94;4136613;28;20045;-72
2022/07/14 01:24:09;;;;;;;3.53;2.00;;;;;;;17.15;67.69;98839.97;4134433;28;20484;-72
2022/07/14 01:26:10;;;;;;;4.50;2.40;;;;;;;17.08;67.85;98842.81;4136533;28;20331;-72
2022/07/14 01:28:10;;;;;;;3.95;2.33;;;;;;;17.04;67.94;98842.84;4136325;28;20429;-72
2022/07/14 01:30:11;;;;;;;4.13;2.20;;;;;;;17.01;67.82;98851.28;4135925;28;20077;-73
2022/07/14 01:32:11;;;;;;;7.07;2.55;;;;;;;16.94;67.77;98852.13;4137158;28;20402;-72
2022/07/14 01:34:11;;;;;;;3.72;2.80;;;;;;;16.92;68.15;98850.94;4136413;28;20030;-72
2022/07/14 01:36:12;;;;;;;5.15;2.40;;;;;;;16.91;68.32;98854.94;4137092;28;20048;-72
2022/07/14 01:38:12;;;;;;;5.90;2.60;;;;;;;16.91;68.50;98846.56;4135351;28;20363;-72
2022/07/14 01:40:13;;;;;;;2.22;2.03;;;;;;;16.88;68.67;98848.19;4136050;28;20799;-72
2022/07/14 01:42:13;;;;;;;3.08;2.22;;;;;;;16.84;69.45;98836.22;4136653;28;20485;-72
2022/07/14 01:44:13;;;;;;;3.22;2.25;;;;;;;16.81;69.73;98832.28;4134271;28;20121;-72
2022/07/14 01:46:14;;;;;;;2.35;2.13;;;;;;;16.76;70.10;98832.69;4136552;28;20083;-72
2022/07/14 01:48:14;;;;;;;5.18;2.60;;;;;;;16.77;70.04;98823.09;4135397;28;20545;-72
2022/07/14 01:50:15;;;;;;;2.97;2.20;;;;;;;16.76;69.92;98824.31;4135479;28;20030;-72
2022/07/14 01:52:15;;;;;;;5.05;2.90;;;;;;;16.77;70.13;98828.69;4136466;28;20525;-72
2022/07/14 01:54:15;;;;;;;3.90;2.45;;;;;;;16.79;70.40;98826.28;4136679;28;20030;-72
2022/07/14 01:56:16;;;;;;;6.85;2.70;;;;;;;16.82;70.21;98836.66;4135664;28;20030;-72
2022/07/14 01:58:16;;;;;;;3.00;2.40;;;;;;;16.85;69.35;98835.03;4134595;28;20073;-72
2022/07/14 02:00:17;;;;;;;5.28;2.47;;;;;;;16.93;68.20;98842.16;4135790;28;20262;-71
2022/07/14 02:02:17;;;;;;;2.75;2.10;;;;;;;17.04;68.37;98847.63;4136917;28;20041;-71
2022/07/14 02:04:19;;;;;;;3.00;2.15;;;;;;;17.13;67.53;98839.59;4135036;28;20396;-72
2022/07/14 02:06:19;;;;;;;2.80;2.25;;;;;;;17.25;66.93;98847.47;4135652;28;20026;-72
2022/07/14 02:08:20;;;;;;;3.60;2.40;;;;;;;17.11;68.23;98834.38;4135372;28;20485;-72
2022/07/14 02:12:39;;;;;;;4.05;2.20;;;;;;;17.11;67.43;98848.38;4135736;28;20057;-72
2022/07/14 02:14:41;;;;;;;3.38;2.40;;;;;;;17.00;67.96;98849.69;4135911;28;20053;-72
2022/07/14 02:16:41;;;;;;;5.60;2.72;;;;;;;16.94;67.80;98845.72;4133714;28;20044;-72
2022/07/14 02:18:41;;;;;;;3.33;2.58;;;;;;;16.85;68.59;98844.19;4134776;28;20050;-72
2022/07/14 02:20:42;;;;;;;2.95;2.55;;;;;;;16.76;68.93;98843.06;4135540;28;20501;-72
2022/07/14 02:22:42;;;;;;;5.93;2.88;;;;;;;16.67;68.78;98842.72;4136878;28;20046;-72
2022/07/14 02:24:42;;;;;;;2.80;2.20;;;;;;;16.63;69.36;98847.53;4136450;28;20456;-71
2022/07/14 02:26:43;;;;;;;2.88;2.30;;;;;;;16.58;69.76;98845.97;4130205;28;20520;-72
2022/07/14 02:28:43;;;;;;;4.60;2.75;;;;;;;16.56;70.35;98851.19;4129781;28;20044;-72
2022/07/14 02:30:45;;;;;;;3.97;2.55;;;;;;;16.58;69.39;98843.19;4135044;28;20114;-72
2022/07/14 02:32:46;;;;;;;2.60;2.27;;;;;;;16.62;68.98;98835.56;4135738;28;20050;-72
2022/07/14 02:34:46;;;;;;;3.22;2.47;;;;;;;16.64;69.27;98835.16;4134527;28;20365;-72
2022/07/14 02:36:47;;;;;;;3.90;2.45;;;;;;;16.61;68.99;98828.38;4134678;28;20375;-72
2022/07/14 02:38:47;;;;;;;2.85;2.45;;;;;;;16.64;69.21;98841.56;4134279;28;20042;-72
2022/07/14 02:40:47;;;;;;;2.95;2.35;;;;;;;16.60;69.55;98839.97;4135580;28;20045;-72
2022/07/14 02:42:48;;;;;;;4.32;2.85;;;;;;;16.58;70.25;98843.19;4135671;28;20038;-72
2022/07/14 02:44:48;;;;;;;3.15;2.58;;;;;;;16.57;69.47;98836.81;4136119;28;20057;-72
2022/07/14 02:46:49;;;;;;;4.25;2.67;;;;;;;16.55;70.32;98830.84;4135586;28;20077;-72
2022/07/14 02:48:50;;;;;;;4.20;2.90;;;;;;;16.54;70.01;98828.44;4135685;28;20321;-72
2022/07/14 02:50:50;;;;;;;4.07;3.20;;;;;;;16.55;70.22;98832.84;4135241;28;20325;-72
2022/07/14 02:52:51;;;;;;;4.82;3.50;;;;;;;16.57;70.50;98839.59;4134686;28;20038;-72
2022/07/14 02:54:51;;;;;;;6.32;3.78;;;;;;;16.59;70.33;98841.97;4134563;28;20320;-71
2022/07/14 02:56:51;;;;;;;6.65;3.97;;;;;;;16.59;71.12;98847.56;4135659;28;20046;-72
2022/07/14 02:58:51;;;;;;;6.85;3.67;;;;;;;16.58;70.56;98843.97;4135219;28;20060;-72
2022/07/14 03:00:53;;;;;;;9.07;4.03;;;;;;;16.61;70.56;98849.94;4135738;28;20157;-72
2022/07/14 03:02:54;;;;;;;4.88;3.58;;;;;;;16.62;70.52;98848.72;4135541;28;20054;-72
2022/07/14 03:04:54;;;;;;;6.35;3.40;;;;;;;16.64;70.17;98847.13;4135200;28;20356;-72
2022/07/14 03:06:54;;;;;;;9.30;3.70;;;;;;;16.66;70.33;98839.13;4134347;28;20430;-72
2022/07/14 03:08:55;;;;;;;8.50;3.72;;;;;;;16.69;69.72;98849.50;4134866;28;20213;-71
2022/07/14 03:10:56;;;;;;;17.25;4.30;;;;;;;16.68;70.59;98847.91;4135278;28;20510;-72
2022/07/14 03:12:56;;;;;;;10.73;3.80;;;;;;;16.68;69.97;98847.91;4134262;28;20406;-72
2022/07/14 03:14:56;;;;;;;7.57;3.97;;;;;;;16.66;70.42;98852.31;4135790;28;20038;-72
2022/07/14 03:16:57;;;;;;;10.43;4.30;;;;;;;16.63;71.23;98845.53;4134548;28;20046;-72
2022/07/14 03:18:57;;;;;;;10.55;3.60;;;;;;;16.63;70.60;98855.91;4135546;28;20585;-72
2022/07/14 03:20:57;;;;;;;6.18;3.42;;;;;;;16.61;70.45;98864.69;4133901;28;20052;-72
2022/07/14 03:22:58;;;;;;;9.18;3.92;;;;;;;16.61;70.78;98866.69;4136173;28;20076;-72
2022/07/14 03:24:58;;;;;;;11.38;4.38;;;;;;;16.62;70.81;98873.88;4134697;28;20402;-72
2022/07/14 03:26:59;;;;;;;10.40;4.20;;;;;;;16.65;70.24;98861.91;4136592;28;20478;-72
2022/07/14 03:28:59;;;;;;;4.38;3.55;;;;;;;16.71;69.60;98863.06;4139257;28;20703;-72
2022/07/14 03:30:59;;;;;;;6.95;3.90;;;;;;;16.75;70.02;98861.06;4136204;28;20046;-72
2022/07/14 03:33:00;;;;;;;10.18;4.53;;;;;;;16.75;72.71;98870.22;4138148;28;20144;-72
2022/07/14 03:35:03;;;;;;;7.97;3.72;;;;;;;16.67;72.91;98867.88;4139046;28;20482;-72
2022/07/14 03:37:03;;;;;;;8.15;3.70;;;;;;;16.67;72.24;98860.28;4138723;28;20126;-72
2022/07/14 03:39:04;;;;;;;7.65;3.50;;;;;;;16.70;71.14;98855.88;4135575;28;20462;-72
2022/07/14 03:41:05;;;;;;;5.80;2.85;;;;;;;16.69;70.59;98852.31;4137959;28;20042;-72
2022/07/14 03:43:05;;;;;;;6.68;3.60;;;;;;;16.77;70.81;98851.03;4136975;28;20073;-72
2022/07/14 03:45:06;;;;;;;9.57;3.47;;;;;;;16.82;71.66;98836.66;4138005;28;20041;-72
2022/07/14 03:47:07;;;;;;;6.57;3.13;;;;;;;16.85;71.23;98843.41;4138183;28;20372;-72
2022/07/14 03:49:07;;;;;;;5.90;3.45;;;;;;;16.81;72.13;98845.44;4138443;28;20336;-72
2022/07/14 03:51:08;;;;;;;5.82;2.95;;;;;;;16.74;72.89;98845.50;4137413;28;20057;-72
2022/07/14 03:53:08;;;;;;;4.13;3.10;;;;;;;16.66;73.69;98847.50;4137350;28;20133;-72
2022/07/14 03:55:09;;;;;;;5.97;3.00;;;;;;;16.60;73.98;98851.16;4138016;28;20227;-72
2022/07/14 03:57:09;;;;;;;4.43;2.83;;;;;;;16.56;74.03;98846.38;4139070;28;20878;-72
2022/07/14 03:59:10;;;;;;;5.68;3.40;;;;;;;16.56;73.71;98845.59;4136927;28;20478;-72
2022/07/14 04:01:12;;;;;;;4.28;3.58;;;;;;;16.56;74.27;98854.78;4137031;28;20046;-72
2022/07/14 04:03:13;;;;;;;3.63;2.92;;;;;;;16.58;74.53;98854.34;4136775;28;20424;-72
2022/07/14 04:05:13;;;;;;;3.90;3.15;;;;;;;16.56;74.40;98854.78;4138205;28;20034;-72
2022/07/14 04:07:13;;;;;;;5.30;3.13;;;;;;;16.56;74.50;98867.94;4137783;28;20045;-72
2022/07/14 04:09:15;;;;;;;4.28;3.10;;;;;;;16.55;74.47;98855.19;4135682;28;20069;-72
2022/07/14 04:11:15;;;;;;;6.90;3.25;;;;;;;16.58;74.87;98865.53;4137479;28;20058;-72
2022/07/14 04:13:16;;;;;;;4.93;3.35;;;;;;;16.59;75.08;98867.13;4134966;28;20493;-72
2022/07/14 04:15:16;;;;;;;3.75;3.35;;;;;;;16.57;75.64;98866.75;4135708;28;20515;-72
2022/07/14 04:17:16;;;;;;;5.43;3.13;;;;;;;16.56;75.24;98854.78;4135972;28;20046;-72
2022/07/14 04:19:17;;;;;;;6.85;4.97;;;;;;;16.55;75.43;98858.78;4134313;28;20129;-72
2022/07/14 04:21:17;;;;;;;5.85;3.90;;;;;;;16.56;76.06;98871.53;4134231;28;20049;-72
2022/07/14 04:23:18;;;;;;;5.80;3.53;;;;;;;16.57;75.83;98873.13;4135343;28;20046;-72
2022/07/14 04:25:18;;;;;;;5.45;3.45;;;;;;;16.57;75.29;98875.91;4134320;28;20056;-72
2022/07/14 04:27:19;;;;;;;6.82;3.58;;;;;;;16.61;76.93;98887.03;4135862;28;20073;-72
2022/07/14 04:29:19;;;;;;;6.22;3.78;;;;;;;16.61;76.70;98886.25;4135614;28;20100;-72
2022/07/14 04:31:20;;;;;;;5.07;3.45;;;;;;;16.63;75.37;98873.47;4136457;28;20583;-72
2022/07/14 04:33:21;;;;;;;5.68;3.40;;;;;;;16.73;74.37;98878.22;4134167;28;20462;-72
2022/07/14 04:35:22;;;;;;;7.10;3.63;;;;;;;16.82;73.44;98881.34;4137801;28;20417;-72
2022/07/14 04:37:22;;;;;;;4.85;3.58;;;;;;;16.93;73.35;98886.88;4136773;28;20128;-72
2022/07/14 04:39:22;;;;;;;8.50;4.25;;;;;;;17.01;73.57;98882.81;4137606;28;20041;-72
2022/07/14 04:41:24;;;;;;;7.03;3.85;;;;;;;17.03;75.61;98888.78;4136878;28;20161;-72
2022/07/14 04:43:24;;;;;;;7.32;3.92;;;;;;;17.05;77.46;98882.78;4137411;28;20077;-72
2022/07/14 04:45:25;;;;;;;10.20;4.40;;;;;;;16.99;78.63;98884.44;4135215;28;20128;-72
2022/07/14 04:47:25;;;;;;;6.35;4.15;;;;;;;17.01;78.79;98885.59;4136408;28;20057;-72
2022/07/14 04:52:02;;;;;;;7.05;4.70;;;;;;;16.99;80.95;98893.63;4134044;28;20076;-72
2022/07/14 04:54:03;;;;;;;7.32;4.43;;;;;;;16.99;80.13;98904.78;4134196;28;20807;-72
2022/07/14 04:56:03;;;;;;;7.40;4.32;;;;;;;16.98;79.20;98897.63;4135687;28;20017;-72
2022/07/14 04:58:04;;;;;;;6.95;4.13;;;;;;;17.05;79.52;98899.56;4135747;28;20064;-72
2022/07/14 05:00:05;;;;;;;6.60;4.35;;;;;;;17.09;79.44;98905.91;4134017;28;20030;-72
2022/07/14 05:02:06;;;;;;;5.13;4.63;;;;;;;17.10;79.95;98908.28;4133459;28;20295;-72
2022/07/14 05:04:06;;;;;;;7.38;4.50;;;;;;;17.11;80.68;98911.88;4058271;28;20045;-72
2022/07/14 05:06:06;;;;;;;5.10;4.25;;;;;;;17.15;80.66;98909.88;4136480;28;20415;-72
2022/07/14 05:08:07;;;;;;;6.25;4.60;;;;;;;17.19;80.27;98905.03;4135541;28;20026;-72
2022/07/14 05:10:08;;;;;;;5.10;4.05;;;;;;;17.21;80.68;98899.00;4134239;28;20378;-72
2022/07/14 05:12:09;;;;;;;5.78;3.88;;;;;;;17.21;80.93;98887.81;4136156;28;20485;-72
2022/07/14 05:14:10;;;;;;;8.87;4.53;;;;;;;17.21;80.47;98882.22;4136135;28;20022;-72
2022/07/14 05:16:10;;;;;;;7.80;4.70;;;;;;;17.25;80.41;98881.00;4135237;28;20026;-72
2022/07/14 05:18:11;;;;;;;5.07;4.57;;;;;;;17.29;80.65;98892.16;4135573;28;20455;-72
2022/07/14 05:20:11;;;;;;;4.93;4.43;;;;;;;17.31;81.38;98886.97;4133894;28;20037;-72
2022/07/14 05:22:12;;;;;;;4.93;4.22;;;;;;;17.36;81.11;98883.69;4135742;28;20056;-72
2022/07/14 05:24:13;;;;;;;5.55;5.05;;;;;;;17.32;81.96;98875.34;4136053;28;20026;-72
2022/07/14 05:26:13;;;;;;;5.20;4.50;;;;;;;17.31;82.64;98867.38;4136294;28;20387;-72
2022/07/14 05:28:14;;;;;;;8.82;4.78;;;;;;;17.23;82.38;98863.84;4134650;28;20113;-72
2022/07/14 05:30:14;;;;;;;11.55;4.38;;;;;;;17.25;81.42;98863.44;4136849;28;20078;-72
2022/07/14 05:32:15;;;;;;;6.68;4.38;;;;;;;17.27;82.81;98875.78;4137192;28;20353;-72
2022/07/14 05:34:15;;;;;;;7.32;4.10;;;;;;;17.26;82.40;98876.22;4135266;28;20324;-72
2022/07/14 05:36:16;;;;;;;4.35;3.85;;;;;;;17.27;82.62;98869.41;4136249;28;20032;-72
2022/07/14 05:38:16;;;;;;;5.57;4.18;;;;;;;17.29;81.35;98859.38;4137601;28;20030;-72
2022/07/14 05:40:16;;;;;;;7.20;4.57;;;;;;;17.30;81.72;98849.81;4135922;28;20026;-72
2022/07/14 05:42:21;;;;;;;5.43;4.18;;;;;;;17.36;81.92;98858.53;4135923;28;20332;-72
2022/07/14 05:44:21;;;;;;;4.40;4.00;;;;;;;17.35;82.64;98868.94;4136894;28;20052;-72
2022/07/14 05:46:22;;;;;;;4.28;3.80;;;;;;;17.41;83.06;98883.25;4136465;28;20297;-72
2022/07/14 05:48:22;;;;;;;7.57;4.45;;;;;;;17.44;81.22;98887.22;4135650;28;20069;-72
2022/07/14 05:50:22;;;;;;;5.85;4.25;;;;;;;17.48;80.08;98882.41;4135588;28;20058;-72
2022/07/14 05:52:23;;;;;;;9.23;5.15;;;;;;;17.50;83.13;98879.97;4136623;28;20050;-72
2022/07/14 05:54:23;;;;;;;5.78;4.13;;;;;;;17.50;81.89;98885.56;4136133;28;20073;-72
2022/07/14 05:56:23;;;;;;;4.97;4.15;;;;;;;17.53;81.47;98890.34;4136085;28;20400;-72
2022/07/14 05:58:24;;;;;;;6.07;4.28;;;;;;;17.56;80.83;98892.31;4135899;28;20049;-72
2022/07/14 06:00:25;;;;;;;6.65;4.40;;;;;;;17.61;80.58;98892.66;4136755;28;20053;-72
2022/07/14 06:02:25;;;;;;;6.13;4.13;;;;;;;17.64;77.35;98883.44;4136496;28;20054;-72
2022/07/14 06:04:25;;;;;;;6.97;4.60;;;;;;;17.71;78.48;98898.56;4136882;28;20052;-72
2022/07/14 06:06:26;;;;;;;4.65;4.20;;;;;;;17.69;79.55;98888.56;4135046;28;20132;-72
2022/07/14 06:08:27;;;;;;;5.85;4.68;;;;;;;17.69;79.72;98888.56;4135018;28;20068;-72
2022/07/14 06:10:27;;;;;;;6.70;4.65;;;;;;;17.68;79.16;98888.97;4136485;28;20432;-72
2022/07/14 06:12:28;;;;;;;4.45;3.80;;;;;;;17.68;79.17;98884.19;4135959;28;20210;-72
2022/07/14 06:14:28;;;;;;;5.30;4.53;;;;;;;17.73;78.72;98880.19;4135976;28;20058;-72
2022/07/14 06:16:29;;;;;;;5.03;4.00;;;;;;;17.79;78.19;98869.31;4136188;28;20096;-72
2022/07/14 06:18:29;;;;;;;6.60;3.95;;;;;;;17.88;78.68;98873.22;4135911;28;20088;-72
2022/07/14 06:20:30;;;;;;;5.60;4.03;;;;;;;17.93;78.65;98866.34;4135544;28;20440;-72
2022/07/14 06:22:30;;;;;;;4.53;4.00;;;;;;;18.02;79.25;98865.84;4136119;28;20050;-72
2022/07/14 06:24:32;;;;;;;5.28;3.67;;;;;;;18.06;78.29;98880.59;4136116;28;20045;-72
2022/07/14 06:26:34;;;;;;;6.30;4.37;;;;;;;18.10;77.54;98884.94;4136740;28;20045;-72
2022/07/14 06:28:36;;;;;;;8.10;4.60;;;;;;;18.17;76.79;98895.25;4135196;28;20046;-72
2022/07/14 06:30:38;;;;;;;7.70;4.33;;;;;;;18.20;75.78;98894.41;4136087;28;20129;-72
2022/07/14 06:32:39;;;;;;;4.47;3.88;;;;;;;18.23;75.40;98896.38;4135550;28;20068;-72
2022/07/14 06:34:39;;;;;;;6.40;4.22;;;;;;;18.24;73.95;98892.38;4136181;28;21178;-72
2022/07/14 06:36:40;;;;;;;4.60;3.88;;;;;;;18.25;74.24;98894.75;4136300;28;20053;-72
2022/07/14 06:38:40;;;;;;;7.20;4.07;;;;;;;18.31;74.07;98878.28;4134210;28;20049;-72
2022/07/14 06:40:40;;;;;;;12.80;4.65;;;;;;;18.36;73.67;98879.81;4136656;28;20111;-72
2022/07/14 06:42:41;;;;;;;6.03;4.28;;;;;;;18.40;74.37;98875.75;4136261;28;20444;-72
2022/07/14 06:44:41;;;;;;;5.40;3.80;;;;;;;18.43;74.17;98872.09;4136376;28;20050;-72
2022/07/14 06:46:42;;;;;;;7.38;5.18;;;;;;;18.46;74.04;98857.25;4136010;28;20052;-72
2022/07/14 06:48:43;;;;;;;7.00;4.93;;;;;;;18.53;74.25;98873.16;4133531;28;20727;-72
2022/07/14 06:50:44;;;;;;;7.38;4.28;;;;;;;18.55;73.61;98887.56;4136192;28;20038;-72
2022/07/14 06:52:44;;;;;;;8.02;4.50;;;;;;;18.58;72.02;98880.31;4135040;28;20045;-72
2022/07/14 06:54:45;;;;;;;8.10;4.18;;;;;;;18.63;71.70;98871.44;4136497;28;20204;-72
2022/07/14 06:56:45;;;;;;;12.07;4.70;;;;;;;18.69;72.13;98864.16;4135546;28;20141;-72
2022/07/14 06:58:45;;;;;;;7.32;3.85;;;;;;;18.76;72.20;98856.44;4135447;28;20073;-72
2022/07/14 07:00:46;;;;;;;5.75;4.10;;;;;;;18.82;73.02;98842.75;4136747;28;20073;-72
2022/07/14 07:02:46;;;;;;;7.40;3.60;;;;;;;18.93;70.77;98822.94;4138674;28;20100;-72
2022/07/14 07:06:43;;;;;;;9.57;3.80;;;;;;;19.00;68.58;98795.56;4139059;28;20156;-72
2022/07/14 07:07:07;;;;;;;5.15;4.40;;;;;;;19.05;70.76;98825.94;4139059;28;20030;-72
2022/07/14 07:09:07;;;;;;;9.35;4.03;;;;;;;19.04;71.27;98829.97;4138426;28;20060;-72
2022/07/14 07:11:09;;;;;;;6.82;4.28;;;;;;;19.07;71.85;98831.91;4139035;28;20872;-72
2022/07/14 07:13:09;;;;;;;6.95;3.88;;;;;;;19.06;71.07;98838.72;4139432;28;20072;-72
2022/07/14 07:15:10;;;;;;;9.30;4.63;;;;;;;19.11;71.58;98834.63;4139537;28;20423;-72
2022/07/14 07:17:11;;;;;;;5.82;3.75;;;;;;;19.17;71.13;98841.34;4139010;28;20085;-72
2022/07/14 07:19:11;;;;;;;4.43;3.97;;;;;;;19.21;69.50;98832.88;4138610;28;20092;-72
2022/07/14 07:21:14;;;;;;;6.07;4.07;;;;;;;19.23;70.14;98845.25;4138328;28;20181;-72
2022/07/14 07:23:14;;;;;;;;;;;;;;;19.22;69.33;98851.31;4139736;28;20465;-72
2022/07/14 07:25:14;;;;;;;6.30;4.60;;;;;;;19.22;69.54;98843.69;4138755;28;19919;-72
2022/07/14 07:27:15;;;;;;;6.13;4.25;;;;;;;19.26;69.41;98843.59;4139080;28;20277;-72
2022/07/14 07:29:15;;;;;;;4.00;3.60;;;;;;;19.34;68.55;98822.63;4138230;28;20088;-72
2022/07/14 07:31:16;;;;;;;4.10;3.70;;;;;;;19.43;67.04;98803.19;4138301;28;20518;-72
2022/07/14 07:33:16;;;;;;;6.53;4.05;;;;;;;19.55;66.65;98805.38;4138097;28;20042;-72
2022/07/14 07:35:18;;;;;;;5.63;3.95;;;;;;;19.64;66.64;98797.22;4138656;28;20394;-72
2022/07/14 07:37:21;;;;;;;6.28;4.47;;;;;;;19.77;67.92;98791.72;4138079;28;20116;-72
2022/07/14 07:39:22;;;;;;;6.23;4.63;;;;;;;19.91;67.94;98782.22;4136726;28;20502;-72
2022/07/14 07:41:22;;;;;;;4.85;3.90;;;;;;;19.97;67.57;98772.06;4139189;28;20038;-72
2022/07/14 07:43:22;;;;;;;6.22;3.88;;;;;;;20.08;66.56;98783.06;4138904;28;20139;-72
2022/07/14 07:45:23;;;;;;;7.10;4.60;;;;;;;20.11;65.77;98793.44;4139334;28;20073;-72
2022/07/14 07:47:24;;;;;;;7.32;3.97;;;;;;;20.16;66.21;98781.69;4138475;28;20050;-72
2022/07/14 07:49:24;;;;;;;5.00;4.03;;;;;;;20.24;66.34;98785.13;4138102;28;20045;-72
2022/07/14 07:51:24;;;;;;;9.60;4.40;;;;;;;20.23;65.01;98789.97;4138666;28;20046;-72
2022/07/14 07:53:25;;;;;;;8.15;4.75;;;;;;;20.24;64.90;98799.19;4138227;28;20448;-72
2022/07/14 07:55:25;;;;;;;5.28;4.30;;;;;;;20.19;65.10;98797.69;4139103;28;20050;-72
2022/07/14 07:57:26;;;;;;;5.43;3.78;;;;;;;20.18;65.21;98798.88;4138051;28;20064;-72
2022/07/14 07:59:26;;;;;;;6.13;4.03;;;;;;;20.23;66.77;98806.03;4137992;28;20074;-72
2022/07/14 08:01:27;;;;;;;5.43;4.28;;;;;;;20.23;66.25;98800.41;4137808;28;20048;-72
2022/07/14 08:03:27;;;;;;;6.18;4.35;;;;;;;20.14;65.27;98810.22;4137695;28;20777;-72
2022/07/14 08:05:29;;;;;;;6.30;4.07;;;;;;;20.17;66.43;98800.91;4138852;28;20160;-72
2022/07/14 08:07:29;;;;;;;5.50;4.80;;;;;;;20.16;65.45;98787.31;4138200;28;20104;-72
2022/07/14 08:09:30;;;;;;;4.75;4.20;;;;;;;20.18;65.88;98776.41;4137522;28;20467;-72
2022/07/14 08:11:30;;;;;;;4.80;4.40;;;;;;;20.23;66.19;98777.94;4138375;28;20505;-72
2022/07/14 08:13:30;;;;;;;4.93;4.18;;;;;;;20.30;65.11;98781.38;4137639;28;20042;-72
2022/07/14 08:15:31;;;;;;;4.18;3.78;;;;;;;20.41;64.49;98778.31;4138159;28;20112;-72
2022/07/14 08:17:32;;;;;;;6.93;4.28;;;;;;;20.51;65.58;98780.09;4138306;28;20050;-72
2022/07/14 08:19:33;;;;;;;5.20;3.92;;;;;;;20.56;64.22;98778.81;4137901;28;20081;-72
2022/07/14 08:21:33;;;;;;;4.50;4.10;;;;;;;20.61;65.25;98770.63;4137751;28;20041;-72
2022/07/14 08:23:33;;;;;;;5.95;3.97;;;;;;;20.72;64.96;98790.84;4137393;28;20301;-72
2022/07/14 08:25:34;;;;;;;8.45;4.38;;;;;;;20.80;64.60;98799.09;4138312;28;20046;-72
2022/07/14 08:27:34;;;;;;;4.45;3.95;;;;;;;20.78;63.54;98788.31;4137079;28;20053;-72
2022/07/14 08:29:35;;;;;;;4.32;3.92;;;;;;;20.78;63.98;98793.94;4136567;28;20068;-72
2022/07/14 08:31:35;;;;;;;7.18;4.00;;;;;;;20.78;63.18;98793.13;4137757;28;20119;-72
2022/07/14 08:33:36;;;;;;;8.20;4.35;;;;;;;20.93;64.73;98794.34;4137582;28;20045;-72
2022/07/14 08:35:37;;;;;;;5.05;4.20;;;;;;;21.14;63.32;98782.56;4137238;28;20510;-72
2022/07/14 08:37:38;;;;;;;5.13;3.95;;;;;;;21.40;63.99;98791.94;4138548;28;20112;-72
2022/07/14 08:39:38;;;;;;;4.93;4.38;;;;;;;21.55;63.23;98801.56;4136488;28;20034;-72
2022/07/14 08:41:39;;;;;;;4.93;4.35;;;;;;;21.41;60.93;98792.72;4137479;28;20092;-72
2022/07/14 08:43:39;;;;;;;5.30;4.80;;;;;;;21.36;61.75;98799.69;4137062;28;20046;-72
2022/07/14 08:45:42;;;;;;;5.97;4.75;;;;;;;21.13;61.82;98799.88;4138193;28;20041;-72
2022/07/14 08:47:43;;;;;;;5.20;4.70;;;;;;;21.12;61.69;98796.28;4137635;28;20042;-72
2022/07/14 08:49:43;;;;;;;6.75;5.10;;;;;;;21.16;61.99;98782.88;4136637;28;20041;-72
2022/07/14 08:51:45;;;;;;;5.85;4.95;;;;;;;21.22;62.91;98774.72;4136893;28;20394;-72
2022/07/14 08:53:46;;;;;;;7.90;4.97;;;;;;;21.38;63.09;98782.34;4137202;28;20417;-72
2022/07/14 08:55:47;;;;;;;5.63;5.05;;;;;;;21.45;61.52;98771.69;4137722;28;20088;-72
2022/07/14 08:57:48;;;;;;;4.97;4.47;;;;;;;21.64;61.36;98763.53;4137139;28;20073;-72
2022/07/14 08:59:48;;;;;;;6.18;4.65;;;;;;;21.76;61.49;98768.41;4136932;28;20281;-72
2022/07/14 09:01:50;;;;;;;5.15;4.43;;;;;;;21.78;60.70;98766.75;4137008;28;20061;-72
2022/07/14 09:03:50;;;;;;;7.63;4.30;;;;;;;21.78;60.02;98771.59;4136037;28;20046;-72
2022/07/14 09:05:52;;;;;;;4.63;4.20;;;;;;;21.81;60.74;98760.19;4137684;28;20492;-72
2022/07/14 09:07:56;;;;;;;5.70;4.40;;;;;;;21.87;59.03;98761.22;4136950;28;20486;-72
2022/07/14 09:10:07;;;;;;;4.07;3.67;;;;;;;22.17;60.10;98755.53;4134910;28;20058;-72
2022/07/14 09:12:08;;;;;;;5.70;4.20;;;;;;;22.37;59.23;98753.31;4136164;28;20061;-72
2022/07/14 09:14:09;;;;;;;5.30;4.78;;;;;;;22.51;58.99;98755.69;4137459;28;20030;-72
2022/07/14 09:16:21;;;;;;;5.18;4.68;;;;;;;22.48;59.73;98755.78;4136796;28;20026;-72
2022/07/14 09:18:27;;;;;;;5.53;4.30;;;;;;;22.38;59.05;98747.22;4136545;28;20053;-72
2022/07/14 09:20:31;;;;;;;5.97;4.95;;;;;;;22.29;57.77;98758.38;4136846;28;20052;-72
2022/07/14 09:22:32;;;;;;;11.15;4.57;;;;;;;22.03;58.61;98754.72;4136701;28;20054;-72
2022/07/14 09:24:33;;;;;;;5.65;4.57;;;;;;;21.90;59.48;98758.75;4134844;28;20088;-72
2022/07/14 09:26:41;;;;;;;5.80;4.43;;;;;;;21.80;60.11;98752.19;4137113;28;20128;-72
2022/07/14 09:28:44;;;;;;;4.97;4.53;;;;;;;21.82;60.77;98753.31;4136448;28;20107;-72
2022/07/14 09:30:44;;;;;;;9.10;5.28;;;;;;;21.86;59.67;98751.22;4137492;28;20045;-72
2022/07/14 09:32:45;;;;;;;6.20;5.10;;;;;;;21.89;59.27;98752.34;4137465;28;20497;-72
2022/07/14 09:34:45;;;;;;;4.78;4.25;;;;;;;21.87;60.02;98746.38;4137532;28;20072;-72